createdAt,value
2022-08-17T00:00:40.318Z,3.20
2022-08-17T00:03:39.097Z,2.90
2022-08-17T00:06:28.808Z,3.65
2022-08-17T00:09:18.245Z,3.22
2022-08-17T00:12:42.663Z,3.13
2022-08-17T00:15:13.484Z,3.30
2022-08-17T00:17:59.162Z,3.20
2022-08-17T00:20:45.724Z,3.40
2022-08-17T00:23:32.365Z,2.65
2022-08-17T00:26:34.717Z,3.08
2022-08-17T00:29:25.943Z,2.90
2022-08-17T00:33:22.799Z,2.40
2022-08-17T00:35:27.907Z,2.80
2022-08-17T00:38:14.106Z,2.47
2022-08-17T00:41:04.428Z,2.72
2022-08-17T00:43:57.791Z,3.00
2022-08-17T00:46:45.333Z,3.22
2022-08-17T00:49:31.354Z,2.53
2022-08-17T00:52:21.606Z,2.33
2022-08-17T00:55:09.003Z,2.50
2022-08-17T00:58:00.013Z,2.50
2022-08-17T01:00:47.991Z,2.78
2022-08-17T01:03:37.081Z,2.40
2022-08-17T01:06:24.468Z,2.50
2022-08-17T01:09:10.561Z,2.33
2022-08-17T01:11:57.508Z,2.23
2022-08-17T01:14:43.958Z,2.28
2022-08-17T01:17:30.378Z,1.90
2022-08-17T01:20:16.866Z,2.05
2022-08-17T01:23:02.417Z,2.40
2022-08-17T01:25:54.301Z,2.35
2022-08-17T01:28:54.397Z,2.20
2022-08-17T01:31:52.972Z,2.72
2022-08-17T01:34:43.553Z,2.30
2022-08-17T01:37:35.305Z,2.17
2022-08-17T01:40:36.131Z,1.92
2022-08-17T01:43:33.085Z,2.00
2022-08-17T01:46:26.946Z,2.20
2022-08-17T01:49:13.488Z,1.90
2022-08-17T01:52:09.569Z,2.38
2022-08-17T01:54:56.959Z,2.25
2022-08-17T01:57:45.537Z,2.05
2022-08-17T02:01:01.016Z,1.98
2022-08-17T02:03:38.181Z,2.00
2022-08-17T02:06:27.745Z,2.10
2022-08-17T02:09:16.745Z,2.20
2022-08-17T02:12:37.966Z,1.98
2022-08-17T02:15:12.363Z,2.42
2022-08-17T02:17:58.059Z,2.15
2022-08-17T02:20:44.478Z,2.00
2022-08-17T02:23:34.863Z,2.42
2022-08-17T02:26:25.607Z,2.70
2022-08-17T02:29:14.550Z,2.20
2022-08-17T02:32:01.800Z,2.38
2022-08-17T02:34:47.880Z,2.42
2022-08-17T02:37:33.779Z,2.55
2022-08-17T02:40:36.353Z,2.50
2022-08-17T02:43:22.709Z,2.38
2022-08-17T02:46:08.285Z,2.35
2022-08-17T02:48:54.742Z,2.40
2022-08-17T02:51:41.026Z,2.95
2022-08-17T02:54:40.076Z,2.65
2022-08-17T02:57:27.634Z,2.85
2022-08-17T03:00:21.274Z,3.40
2022-08-17T03:03:09.009Z,3.00
2022-08-17T03:05:54.787Z,2.83
2022-08-17T03:08:40.669Z,2.95
2022-08-17T03:11:27.446Z,3.25
2022-08-17T03:14:13.270Z,2.83
2022-08-17T03:16:59.544Z,3.30
2022-08-17T03:19:45.301Z,2.88
2022-08-17T03:22:38.621Z,3.72
2022-08-17T03:25:28.512Z,2.72
2022-08-17T03:28:14.448Z,3.55
2022-08-17T03:31:00.238Z,3.10
2022-08-17T03:33:46.305Z,3.60
2022-08-17T03:36:31.998Z,3.17
2022-08-17T03:39:22.992Z,3.50
2022-08-17T03:42:31.443Z,3.27
2022-08-17T03:45:43.338Z,3.58
2022-08-17T03:48:47.831Z,3.78
2022-08-17T03:51:57.292Z,3.78
2022-08-17T03:55:06.108Z,3.55
2022-08-17T03:57:51.627Z,3.33
2022-08-17T04:00:40.514Z,3.80
2022-08-17T04:03:26.393Z,3.70
2022-08-17T04:06:12.894Z,4.10
2022-08-17T04:08:58.575Z,3.63
2022-08-17T04:11:44.827Z,3.97
2022-08-17T04:14:36.114Z,3.60
2022-08-17T04:17:38.656Z,3.65
2022-08-17T04:20:24.925Z,4.00
2022-08-17T04:23:16.748Z,4.17
2022-08-17T04:26:03.277Z,4.20
2022-08-17T04:28:49.519Z,4.30
2022-08-17T04:31:36.278Z,4.53
2022-08-17T04:34:22.940Z,3.90
2022-08-17T04:37:08.880Z,4.05
2022-08-17T04:40:15.072Z,4.15
2022-08-17T04:43:16.506Z,4.63
2022-08-17T04:46:08.016Z,4.28
2022-08-17T04:48:57.174Z,4.15
2022-08-17T04:51:54.602Z,4.18
2022-08-17T04:54:42.783Z,4.32
2022-08-17T04:57:29.559Z,4.43
2022-08-17T05:00:26.011Z,4.75
2022-08-17T05:03:12.139Z,4.57
2022-08-17T05:05:57.674Z,3.72
2022-08-17T05:08:43.657Z,4.45
2022-08-17T05:11:30.906Z,4.45
2022-08-17T05:14:16.695Z,4.18
2022-08-17T05:17:07.227Z,3.80
2022-08-17T05:19:56.498Z,4.22
2022-08-17T05:22:53.964Z,3.90
2022-08-17T05:25:42.934Z,4.20
2022-08-17T05:28:33.024Z,4.50
2022-08-17T05:31:21.217Z,4.20
2022-08-17T05:34:07.281Z,4.07
2022-08-17T05:36:53.867Z,4.20
2022-08-17T05:39:39.846Z,4.15
2022-08-17T05:42:25.438Z,4.40
2022-08-17T05:45:12.604Z,3.80
2022-08-17T05:47:59.563Z,4.38
2022-08-17T05:51:15.063Z,4.57
2022-08-17T05:54:34.867Z,4.03
2022-08-17T05:57:32.489Z,4.03
2022-08-17T06:00:31.258Z,4.68
2022-08-17T06:03:17.964Z,4.20
2022-08-17T06:06:31.751Z,4.68
2022-08-17T06:09:40.704Z,4.72
2022-08-17T06:12:42.433Z,4.70
2022-08-17T06:15:34.785Z,4.82
2022-08-17T06:18:23.505Z,4.85
2022-08-17T06:21:13.596Z,4.45
2022-08-17T06:24:06.132Z,4.60
2022-08-17T06:26:52.725Z,4.50
2022-08-17T06:29:42.447Z,4.60
2022-08-17T06:32:29.249Z,4.75
2022-08-17T06:35:30.064Z,4.38
2022-08-17T06:38:38.431Z,4.35
2022-08-17T06:41:56.812Z,4.45
2022-08-17T06:44:50.627Z,4.50
2022-08-17T06:48:05.730Z,4.18
2022-08-17T06:51:01.169Z,4.63
2022-08-17T06:54:16.371Z,4.63
2022-08-17T06:57:25.374Z,4.60
2022-08-17T07:00:23.088Z,4.80
2022-08-17T07:03:09.706Z,4.80
2022-08-17T07:06:05.803Z,4.30
2022-08-17T07:08:59.120Z,4.07
2022-08-17T07:12:15.899Z,4.65
2022-08-17T07:15:05.804Z,4.50
2022-08-17T07:17:52.208Z,4.00
2022-08-17T07:20:43.862Z,3.83
2022-08-17T07:24:01.045Z,4.63
2022-08-17T07:26:49.728Z,4.03
2022-08-17T07:30:11.449Z,3.78
2022-08-17T07:33:13.447Z,3.45
2022-08-17T07:36:00.910Z,3.90
2022-08-17T07:38:56.814Z,4.07
2022-08-17T07:41:53.098Z,3.97
2022-08-17T07:44:54.156Z,3.92
2022-08-17T07:47:58.532Z,3.90
2022-08-17T07:50:49.412Z,3.67
2022-08-17T07:53:36.513Z,3.70
2022-08-17T07:56:34.907Z,3.80
2022-08-17T07:59:33.799Z,3.58
2022-08-17T08:02:33.893Z,3.17
2022-08-17T08:05:48.735Z,3.22
2022-08-17T08:08:42.775Z,3.53
2022-08-17T08:11:33.481Z,3.90
2022-08-17T08:14:28.420Z,3.70
2022-08-17T08:17:25.544Z,3.77
2022-08-17T08:20:40.823Z,3.65
2022-08-17T08:23:39.213Z,3.78
2022-08-17T08:26:41.524Z,4.15
2022-08-17T08:29:55.103Z,3.47
2022-08-17T08:32:54.045Z,4.18
2022-08-17T08:35:53.927Z,3.70
2022-08-17T08:38:53.512Z,3.85
2022-08-17T08:42:03.189Z,3.58
2022-08-17T08:45:20.390Z,3.38
2022-08-17T08:48:45.883Z,3.67
2022-08-17T08:51:42.245Z,3.67
2022-08-17T08:54:39.915Z,4.32
2022-08-17T08:57:34.368Z,3.30
2022-08-17T09:00:23.814Z,4.07
2022-08-17T09:03:50.948Z,3.58
2022-08-17T09:06:46.138Z,3.80
2022-08-17T09:09:45.279Z,3.95
2022-08-17T09:12:47.097Z,4.85
2022-08-17T09:15:42.307Z,4.05
2022-08-17T09:18:59.982Z,4.28
2022-08-17T09:21:48.191Z,3.50
2022-08-17T09:24:37.420Z,4.10
2022-08-17T09:27:50.772Z,3.35
2022-08-17T09:30:45.533Z,3.83
2022-08-17T09:33:36.651Z,4.00
2022-08-17T09:36:28.606Z,3.80
2022-08-17T09:39:30.685Z,3.90
2022-08-17T09:43:04.395Z,3.95
2022-08-17T09:45:57.336Z,3.90
2022-08-17T09:49:09.638Z,3.75
2022-08-17T09:52:05.960Z,3.90
2022-08-17T09:54:54.472Z,3.80
2022-08-17T09:58:05.107Z,4.00
2022-08-17T10:01:05.601Z,3.92
2022-08-17T10:04:12.258Z,4.13
2022-08-17T10:07:13.823Z,3.90
2022-08-17T10:10:25.657Z,4.70
2022-08-17T10:13:37.868Z,3.75
2022-08-17T10:16:37.264Z,3.85
2022-08-17T10:19:38.667Z,4.05
2022-08-17T10:22:55.931Z,3.47
2022-08-17T10:26:04.908Z,3.83
2022-08-17T10:29:05.221Z,4.33
2022-08-17T10:32:08.650Z,4.05
2022-08-17T10:35:15.999Z,3.75
2022-08-17T10:38:32.782Z,3.45
2022-08-17T10:41:42.052Z,3.72
2022-08-17T10:44:56.192Z,3.47
2022-08-17T10:48:21.843Z,3.95
2022-08-17T10:51:10.884Z,3.33
2022-08-17T10:53:58.510Z,3.65
2022-08-17T10:56:49.121Z,3.13
2022-08-17T10:59:34.693Z,2.80
2022-08-17T11:02:20.071Z,3.22
2022-08-17T11:05:18.065Z,3.70
2022-08-17T11:08:12.716Z,3.95
2022-08-17T11:11:19.805Z,3.35
2022-08-17T11:14:35.696Z,3.10
2022-08-17T11:17:55.207Z,2.60
2022-08-17T11:21:13.489Z,3.03
2022-08-17T11:24:16.591Z,2.92
2022-08-17T11:27:02.861Z,2.95
2022-08-17T11:29:58.132Z,3.05
2022-08-17T11:32:54.354Z,2.67
2022-08-17T11:35:51.235Z,2.60
2022-08-17T11:39:02.136Z,3.03
2022-08-17T11:42:09.765Z,2.75
2022-08-17T11:45:07.783Z,2.95
2022-08-17T11:48:41.298Z,2.30
2022-08-17T11:51:56.661Z,2.53
2022-08-17T11:54:48.459Z,2.67
2022-08-17T11:57:34.244Z,2.55
2022-08-17T12:01:00.839Z,2.72
2022-08-17T12:03:53.777Z,2.00
2022-08-17T12:06:45.328Z,2.40
2022-08-17T12:09:34.459Z,1.90
2022-08-17T12:12:29.774Z,2.30
2022-08-17T12:15:29.087Z,2.33
2022-08-17T12:18:29.466Z,2.10
2022-08-17T12:21:37.305Z,2.75
2022-08-17T12:24:32.341Z,2.53
2022-08-17T12:27:43.163Z,2.35
2022-08-17T12:30:33.229Z,2.72
2022-08-17T12:33:25.406Z,2.17
2022-08-17T12:36:19.252Z,2.30
2022-08-17T12:39:14.317Z,3.13
2022-08-17T12:42:20.832Z,3.00
2022-08-17T12:45:49.748Z,2.50
2022-08-17T12:48:36.859Z,2.25
2022-08-17T12:51:23.098Z,2.20
2022-08-17T12:54:26.016Z,2.15
2022-08-17T12:57:18.136Z,1.88
2022-08-17T13:00:20.982Z,2.25
2022-08-17T13:03:09.754Z,2.60
2022-08-17T13:06:00.581Z,2.63
2022-08-17T13:08:48.127Z,2.42
2022-08-17T13:11:34.238Z,2.50
2022-08-17T13:14:19.962Z,2.57
2022-08-17T13:17:12.692Z,3.28
2022-08-17T13:19:59.292Z,2.63
2022-08-17T13:22:53.584Z,2.88
2022-08-17T13:25:40.855Z,2.95
2022-08-17T13:28:32.450Z,3.00
2022-08-17T13:31:32.599Z,3.37
2022-08-17T13:34:31.162Z,2.47
2022-08-17T13:37:31.029Z,2.53
2022-08-17T13:40:19.775Z,2.70
2022-08-17T13:43:05.609Z,2.53
2022-08-17T13:45:53.389Z,2.38
2022-08-17T13:48:39.957Z,2.63
2022-08-17T13:51:33.836Z,2.47
2022-08-17T13:54:37.659Z,3.40
2022-08-17T13:57:25.712Z,3.70
2022-08-17T14:00:30.751Z,4.22
2022-08-17T14:03:17.411Z,3.30
2022-08-17T14:06:05.757Z,2.97
2022-08-17T14:08:55.851Z,3.03
2022-08-17T14:11:43.023Z,3.67
2022-08-17T14:14:29.868Z,3.43
2022-08-17T14:17:16.354Z,3.92
2022-08-17T14:20:02.173Z,3.88
2022-08-17T14:22:51.087Z,3.27
2022-08-17T14:25:37.289Z,4.00
2022-08-17T14:28:24.506Z,3.58
2022-08-17T14:31:13.737Z,3.90
2022-08-17T14:34:00.002Z,4.22
2022-08-17T14:36:48.384Z,4.88
2022-08-17T14:39:34.566Z,5.18
2022-08-17T14:42:23.366Z,4.45
2022-08-17T14:45:32.892Z,3.55
2022-08-17T14:48:18.199Z,4.32
2022-08-17T14:51:05.560Z,5.20
2022-08-17T14:53:51.771Z,5.07
2022-08-17T14:56:38.608Z,5.45
2022-08-17T14:59:25.110Z,5.07
2022-08-17T15:02:10.996Z,4.80
2022-08-17T15:05:05.640Z,4.90
2022-08-17T15:07:52.796Z,4.90
2022-08-17T15:10:39.170Z,4.80
2022-08-17T15:13:26.748Z,4.90
2022-08-17T15:16:13.738Z,5.50
2022-08-17T15:18:59.835Z,5.03
2022-08-17T15:21:46.894Z,6.57
2022-08-17T15:24:33.564Z,5.93
2022-08-17T15:27:32.313Z,6.22
2022-08-17T15:30:19.870Z,5.65
2022-08-17T15:33:06.099Z,6.13
2022-08-17T15:35:53.487Z,6.32
2022-08-17T15:38:39.452Z,6.20
2022-08-17T15:41:29.135Z,5.63
2022-08-17T15:44:15.525Z,5.70
2022-08-17T15:47:00.995Z,5.70
2022-08-17T15:49:47.167Z,5.50
2022-08-17T15:52:37.970Z,5.88
2022-08-17T15:55:25.230Z,5.70
2022-08-17T15:58:11.334Z,5.57
2022-08-17T16:01:15.166Z,5.07
2022-08-17T16:04:14.925Z,5.35
2022-08-17T16:07:09.816Z,5.88
2022-08-17T16:09:55.367Z,5.53
2022-08-17T16:12:44.903Z,5.72
2022-08-17T16:15:31.908Z,5.50
2022-08-17T16:18:17.811Z,5.28
2022-08-17T16:21:29.589Z,4.97
2022-08-17T16:24:17.506Z,5.32
2022-08-17T16:27:04.536Z,5.18
2022-08-17T16:29:59.285Z,5.07
2022-08-17T16:32:46.581Z,5.03
2022-08-17T16:35:32.565Z,4.40
2022-08-17T16:38:18.861Z,4.47
2022-08-17T16:41:06.527Z,4.60
2022-08-17T16:43:52.640Z,4.82
2022-08-17T16:46:40.316Z,5.10
2022-08-17T16:49:36.573Z,4.68
2022-08-17T16:52:32.484Z,4.93
2022-08-17T16:55:21.961Z,4.77
2022-08-17T16:58:08.962Z,4.40
2022-08-17T17:00:59.719Z,4.90
2022-08-17T17:03:56.335Z,5.43
2022-08-17T17:07:03.845Z,3.57
2022-08-17T17:09:52.620Z,4.37
2022-08-17T17:13:02.899Z,3.30
2022-08-17T17:15:55.111Z,3.60
2022-08-17T17:18:51.706Z,2.92
2022-08-17T17:21:58.697Z,4.00
2022-08-17T17:25:06.491Z,3.90
2022-08-17T17:28:24.991Z,4.32
2022-08-17T17:31:19.350Z,4.60
2022-08-17T17:34:08.031Z,4.22
2022-08-17T17:36:58.254Z,4.65
2022-08-17T17:40:12.194Z,3.92
2022-08-17T17:43:20.566Z,4.38
2022-08-17T17:46:28.486Z,3.97
2022-08-17T17:49:17.782Z,3.47
2022-08-17T17:52:14.576Z,4.10
2022-08-17T17:55:49.900Z,4.53
2022-08-17T17:58:49.183Z,4.38
2022-08-17T18:01:52.063Z,4.60
2022-08-17T18:04:53.065Z,4.80
2022-08-17T18:07:49.945Z,4.15
2022-08-17T18:10:59.013Z,4.82
2022-08-17T18:14:14.255Z,4.73
2022-08-17T18:17:01.880Z,4.43
2022-08-17T18:19:48.259Z,5.88
2022-08-17T18:22:34.131Z,5.53
2022-08-17T18:25:49.885Z,5.57
2022-08-17T18:28:43.177Z,5.07
2022-08-17T18:31:29.414Z,4.70
2022-08-17T18:37:38.033Z,5.15
2022-08-17T18:40:28.020Z,5.10
2022-08-17T18:43:44.468Z,5.43
2022-08-17T18:46:40.060Z,5.13
2022-08-17T18:49:28.267Z,5.32
2022-08-17T18:52:24.208Z,4.60
2022-08-17T18:55:13.201Z,4.80
2022-08-17T18:58:15.245Z,5.15
2022-08-17T19:01:01.225Z,4.35
2022-08-17T19:03:47.174Z,5.18
2022-08-17T19:06:34.160Z,5.20
2022-08-17T19:09:52.590Z,5.60
2022-08-17T19:12:48.115Z,6.90
2022-08-17T19:15:37.835Z,5.70
2022-08-17T19:18:38.781Z,5.55
2022-08-17T19:21:37.182Z,6.82
2022-08-17T19:24:29.962Z,7.30
2022-08-17T19:27:34.909Z,7.80
2022-08-17T19:30:28.188Z,7.10
2022-08-17T19:33:13.661Z,7.03
2022-08-17T19:36:22.031Z,7.18
2022-08-17T19:39:17.060Z,7.30
2022-08-17T19:42:10.894Z,7.30
2022-08-17T19:44:59.635Z,6.50
2022-08-17T19:47:59.549Z,7.63
2022-08-17T19:51:06.547Z,8.20
2022-08-17T19:54:06.386Z,7.70
2022-08-17T19:57:21.212Z,7.50
2022-08-17T20:00:12.848Z,7.28
2022-08-17T20:03:06.326Z,8.02
2022-08-17T20:06:13.421Z,7.38
2022-08-17T20:09:33.798Z,8.23
2022-08-17T20:12:24.447Z,7.55
2022-08-17T20:15:13.943Z,8.35
2022-08-17T20:18:05.297Z,7.43
2022-08-17T20:21:20.463Z,9.75
2022-08-17T20:24:20.505Z,9.43
2022-08-17T20:27:18.389Z,9.63
2022-08-17T20:30:10.732Z,10.32
2022-08-17T20:32:58.453Z,10.18
2022-08-17T20:36:04.730Z,10.75
2022-08-17T20:38:58.947Z,9.95
2022-08-17T20:42:05.847Z,10.50
2022-08-17T20:45:12.258Z,9.95
2022-08-17T20:48:36.738Z,10.70
2022-08-17T20:52:00.904Z,11.90
2022-08-17T20:54:54.056Z,10.98
2022-08-17T20:57:39.550Z,11.65
2022-08-17T21:00:28.580Z,10.77
2022-08-17T21:03:50.011Z,10.82
2022-08-17T21:07:17.438Z,10.98
2022-08-17T21:10:17.595Z,10.57
2022-08-17T21:13:15.723Z,11.90
2022-08-17T21:16:26.570Z,10.90
2022-08-17T21:19:54.173Z,10.80
2022-08-17T21:22:50.240Z,10.13
2022-08-17T21:25:56.362Z,10.68
2022-08-17T21:29:29.670Z,12.73
2022-08-17T21:32:19.027Z,12.88
2022-08-17T21:35:06.865Z,12.00
2022-08-17T21:38:02.388Z,12.05
2022-08-17T21:40:52.822Z,11.60
2022-08-17T21:43:48.977Z,12.55
2022-08-17T21:46:40.328Z,12.32
2022-08-17T21:49:29.103Z,11.57
2022-08-17T21:52:26.907Z,11.18
2022-08-17T21:55:24.999Z,10.85
2022-08-17T21:58:32.321Z,11.07
2022-08-17T22:01:26.644Z,9.50
2022-08-17T22:04:12.336Z,9.02
2022-08-17T22:07:01.297Z,9.30
2022-08-17T22:09:49.989Z,7.97
2022-08-17T22:12:36.477Z,7.80
2022-08-17T22:15:23.645Z,6.85
2022-08-17T22:18:19.288Z,6.95
2022-08-17T22:21:06.391Z,6.93
2022-08-17T22:24:04.820Z,6.50
2022-08-17T22:27:00.366Z,7.18
2022-08-17T22:29:59.961Z,7.10
2022-08-17T22:32:49.340Z,7.82
2022-08-17T22:35:43.082Z,8.43
2022-08-17T22:38:30.889Z,8.27
2022-08-17T22:41:42.452Z,9.18
2022-08-17T22:44:33.931Z,7.38
2022-08-17T22:47:38.642Z,7.45
2022-08-17T22:50:28.274Z,6.50
2022-08-17T22:53:37.662Z,6.80
2022-08-17T22:56:44.744Z,7.97
2022-08-17T22:59:52.189Z,7.28
2022-08-17T23:02:39.167Z,6.75
2022-08-17T23:05:45.525Z,6.35
2022-08-17T23:08:32.538Z,6.13
2022-08-17T23:11:18.282Z,5.70
2022-08-17T23:14:04.653Z,6.32
2022-08-17T23:16:50.936Z,5.45
2022-08-17T23:19:36.685Z,4.85
2022-08-17T23:22:22.873Z,5.38
2022-08-17T23:25:18.362Z,5.25
2022-08-17T23:28:07.553Z,5.10
2022-08-17T23:30:53.764Z,5.47
2022-08-17T23:33:40.621Z,5.32
2022-08-17T23:36:28.394Z,4.57
2022-08-17T23:39:14.485Z,5.25
2022-08-17T23:42:13.178Z,5.05
2022-08-17T23:44:59.358Z,5.20
2022-08-17T23:47:46.698Z,4.85
2022-08-17T23:50:32.569Z,5.25
2022-08-17T23:53:19.989Z,5.40
2022-08-17T23:56:10.184Z,5.90
2022-08-17T23:58:56.456Z,5.88
